sensor_id;sensor_type;location;lat;lon;timestamp;pressure;altitude;pressure_sealevel;temperature;humidity
22031;BME280;11179;52.106;21.024;2023-03-03T00:01:26;100867.75;;;-3.22;67.30
22031;BME280;11179;52.106;21.024;2023-03-03T00:03:52;100868.75;;;-3.23;67.30
22031;BME280;11179;52.106;21.024;2023-03-03T00:06:18;100870.28;;;-3.21;67.46
22031;BME280;11179;52.106;21.024;2023-03-03T00:08:44;100874.97;;;-3.23;67.72
22031;BME280;11179;52.106;21.024;2023-03-03T00:11:10;100861.84;;;-3.26;67.35
22031;BME280;11179;52.106;21.024;2023-03-03T00:13:55;100852.09;;;-3.27;67.47
22031;BME280;11179;52.106;21.024;2023-03-03T00:16:38;100867.41;;;-3.19;67.43
22031;BME280;11179;52.106;21.024;2023-03-03T00:19:17;100852.63;;;-3.23;67.69
22031;BME280;11179;52.106;21.024;2023-03-03T00:21:48;100830.22;;;-3.32;67.48
22031;BME280;11179;52.106;21.024;2023-03-03T00:24:22;100845.25;;;-3.21;67.47
22031;BME280;11179;52.106;21.024;2023-03-03T00:26:53;100840.34;;;-3.26;67.50
22031;BME280;11179;52.106;21.024;2023-03-03T00:31:51;100844.25;;;-3.20;67.71
22031;BME280;11179;52.106;21.024;2023-03-03T00:36:41;100837.56;;;-3.16;67.78
22031;BME280;11179;52.106;21.024;2023-03-03T00:41:53;100839.53;;;-3.18;67.90
22031;BME280;11179;52.106;21.024;2023-03-03T00:44:57;100831.97;;;-3.23;67.95
22031;BME280;11179;52.106;21.024;2023-03-03T00:47:30;100823.59;;;-3.20;67.80
22031;BME280;11179;52.106;21.024;2023-03-03T00:52:39;100818.22;;;-3.20;67.95
22031;BME280;11179;52.106;21.024;2023-03-03T00:55:06;100818.22;;;-3.20;68.01
22031;BME280;11179;52.106;21.024;2023-03-03T00:57:32;100817.22;;;-3.19;67.95
22031;BME280;11179;52.106;21.024;2023-03-03T00:59:57;100811.53;;;-3.16;68.23
22031;BME280;11179;52.106;21.024;2023-03-03T01:02:23;100813.91;;;-3.13;68.26
22031;BME280;11179;52.106;21.024;2023-03-03T01:04:50;100811.38;;;-3.14;68.20
22031;BME280;11179;52.106;21.024;2023-03-03T01:07:16;100808.53;;;-3.13;68.24
22031;BME280;11179;52.106;21.024;2023-03-03T01:09:42;100793.72;;;-3.17;68.43
22031;BME280;11179;52.106;21.024;2023-03-03T01:12:07;100790.22;;;-3.17;68.31
22031;BME280;11179;52.106;21.024;2023-03-03T01:14:33;100790.22;;;-3.17;68.36
22031;BME280;11179;52.106;21.024;2023-03-03T01:16:58;100791.06;;;-3.17;68.33
22031;BME280;11179;52.106;21.024;2023-03-03T01:19:24;100775.25;;;-3.20;68.45
22031;BME280;11179;52.106;21.024;2023-03-03T01:21:50;100785.06;;;-3.11;68.52
22031;BME280;11179;52.106;21.024;2023-03-03T01:24:15;100785.06;;;-3.11;68.75
22031;BME280;11179;52.106;21.024;2023-03-03T01:26:40;100775.31;;;-3.12;68.53
22031;BME280;11179;52.106;21.024;2023-03-03T01:29:06;100776.31;;;-3.13;68.72
22031;BME280;11179;52.106;21.024;2023-03-03T01:31:32;100777.16;;;-3.12;68.68
22031;BME280;11179;52.106;21.024;2023-03-03T01:33:57;100770.94;;;-3.13;68.98
22031;BME280;11179;52.106;21.024;2023-03-03T01:36:26;100761.88;;;-3.12;68.94
22031;BME280;11179;52.106;21.024;2023-03-03T01:38:52;100751.75;;;-3.18;68.82
22031;BME280;11179;52.106;21.024;2023-03-03T01:41:18;100760.03;;;-3.11;69.01
22031;BME280;11179;52.106;21.024;2023-03-03T01:43:45;100753.81;;;-3.12;68.87
22031;BME280;11179;52.106;21.024;2023-03-03T01:48:49;100754.13;;;-3.15;69.09
22031;BME280;11179;52.106;21.024;2023-03-03T01:51:28;100742.22;;;-3.20;69.12
22031;BME280;11179;52.106;21.024;2023-03-03T01:53:57;100750.91;;;-3.18;69.02
22031;BME280;11179;52.106;21.024;2023-03-03T01:56:25;100754.28;;;-3.16;69.23
22031;BME280;11179;52.106;21.024;2023-03-03T01:59:13;100746.22;;;-3.16;69.03
22031;BME280;11179;52.106;21.024;2023-03-03T02:01:40;100748.75;;;-3.15;69.23
22031;BME280;11179;52.106;21.024;2023-03-03T02:04:07;100740.69;;;-3.23;69.24
22031;BME280;11179;52.106;21.024;2023-03-03T02:06:35;100754.44;;;-3.18;69.26
22031;BME280;11179;52.106;21.024;2023-03-03T02:09:28;100744.72;;;-3.19;69.19
22031;BME280;11179;52.106;21.024;2023-03-03T02:11:58;100745.38;;;-3.17;69.45
22031;BME280;11179;52.106;21.024;2023-03-03T02:14:25;100747.56;;;-3.20;69.34
22031;BME280;11179;52.106;21.024;2023-03-03T02:16:51;100747.56;;;-3.20;69.44
22031;BME280;11179;52.106;21.024;2023-03-03T02:22:04;100745.91;;;-3.21;69.33
22031;BME280;11179;52.106;21.024;2023-03-03T02:26:58;100742.00;;;-3.27;69.37
22031;BME280;11179;52.106;21.024;2023-03-03T02:29:24;100753.25;;;-3.23;69.32
22031;BME280;11179;52.106;21.024;2023-03-03T02:31:49;100741.69;;;-3.24;69.48
22031;BME280;11179;52.106;21.024;2023-03-03T02:34:14;100738.09;;;-3.32;69.49
22031;BME280;11179;52.106;21.024;2023-03-03T02:36:40;100728.19;;;-3.32;69.56
22031;BME280;11179;52.106;21.024;2023-03-03T02:39:23;100740.84;;;-3.24;69.44
22031;BME280;11179;52.106;21.024;2023-03-03T02:42:04;100746.75;;;-3.21;69.58
22031;BME280;11179;52.106;21.024;2023-03-03T02:44:31;100741.38;;;-3.21;69.49
22031;BME280;11179;52.106;21.024;2023-03-03T02:46:58;100738.84;;;-3.22;69.69
22031;BME280;11179;52.106;21.024;2023-03-03T02:49:26;100736.00;;;-3.21;69.61
22031;BME280;11179;52.106;21.024;2023-03-03T02:51:52;100722.66;;;-3.30;69.55
22031;BME280;11179;52.106;21.024;2023-03-03T02:54:19;100735.66;;;-3.18;69.42
22031;BME280;11179;52.106;21.024;2023-03-03T02:56:45;100734.50;;;-3.15;69.65
22031;BME280;11179;52.106;21.024;2023-03-03T02:59:11;100739.03;;;-3.16;69.73
22031;BME280;11179;52.106;21.024;2023-03-03T03:01:38;100735.50;;;-3.16;69.67
22031;BME280;11179;52.106;21.024;2023-03-03T03:04:06;100735.88;;;-3.11;69.79
22031;BME280;11179;52.106;21.024;2023-03-03T03:06:32;100737.72;;;-3.12;69.69
22031;BME280;11179;52.106;21.024;2023-03-03T03:08:57;100726.13;;;-3.12;69.87
22031;BME280;11179;52.106;21.024;2023-03-03T03:11:24;100736.88;;;-3.04;70.03
22031;BME280;11179;52.106;21.024;2023-03-03T03:13:49;100719.59;;;-3.10;69.86
22031;BME280;11179;52.106;21.024;2023-03-03T03:16:16;100720.63;;;-3.02;70.00
22031;BME280;11179;52.106;21.024;2023-03-03T03:18:41;100722.97;;;-2.99;70.04
22031;BME280;11179;52.106;21.024;2023-03-03T03:21:08;100726.88;;;-2.94;69.98
22031;BME280;11179;52.106;21.024;2023-03-03T03:23:34;100713.22;;;-3.00;70.21
22031;BME280;11179;52.106;21.024;2023-03-03T03:26:00;100717.59;;;-2.99;70.08
22031;BME280;11179;52.106;21.024;2023-03-03T03:28:25;100728.22;;;-2.90;70.22
22031;BME280;11179;52.106;21.024;2023-03-03T03:30:51;100715.28;;;-2.94;70.27
22031;BME280;11179;52.106;21.024;2023-03-03T03:33:16;100713.78;;;-2.89;70.21
22031;BME280;11179;52.106;21.024;2023-03-03T03:35:41;100710.41;;;-2.91;70.35
22031;BME280;11179;52.106;21.024;2023-03-03T03:38:10;100718.84;;;-2.86;70.22
22031;BME280;11179;52.106;21.024;2023-03-03T03:40:35;100705.88;;;-2.90;70.29
22031;BME280;11179;52.106;21.024;2023-03-03T03:43:01;100718.00;;;-2.86;70.43
22031;BME280;11179;52.106;21.024;2023-03-03T03:45:26;100720.00;;;-2.88;70.35
22031;BME280;11179;52.106;21.024;2023-03-03T03:47:51;100705.03;;;-2.91;70.40
22031;BME280;11179;52.106;21.024;2023-03-03T03:50:17;100710.75;;;-2.94;70.37
22031;BME280;11179;52.106;21.024;2023-03-03T03:52:42;100721.50;;;-2.94;70.50
22031;BME280;11179;52.106;21.024;2023-03-03T03:55:08;100726.53;;;-2.91;70.56
22031;BME280;11179;52.106;21.024;2023-03-03T03:57:33;100727.38;;;-2.90;70.69
22031;BME280;11179;52.106;21.024;2023-03-03T03:59:59;100708.53;;;-2.98;70.68
22031;BME280;11179;52.106;21.024;2023-03-03T04:02:24;100713.75;;;-2.97;70.66
22031;BME280;11179;52.106;21.024;2023-03-03T04:04:49;100704.88;;;-2.97;70.81
22031;BME280;11179;52.106;21.024;2023-03-03T04:07:15;100706.69;;;-2.98;70.67
22031;BME280;11179;52.106;21.024;2023-03-03T04:09:40;100703.53;;;-2.93;70.79
22031;BME280;11179;52.106;21.024;2023-03-03T04:12:05;100699.31;;;-2.96;70.65
22031;BME280;11179;52.106;21.024;2023-03-03T04:14:31;100696.13;;;-2.99;70.81
22031;BME280;11179;52.106;21.024;2023-03-03T04:16:56;100693.75;;;-3.02;70.74
22031;BME280;11179;52.106;21.024;2023-03-03T04:19:22;100697.28;;;-3.02;70.73
22031;BME280;11179;52.106;21.024;2023-03-03T04:21:47;100692.38;;;-3.07;70.77
22031;BME280;11179;52.106;21.024;2023-03-03T04:24:13;100700.13;;;-3.03;70.79
22031;BME280;11179;52.106;21.024;2023-03-03T04:26:38;100679.47;;;-3.11;71.05
22031;BME280;11179;52.106;21.024;2023-03-03T04:29:04;100688.03;;;-3.08;70.88
22031;BME280;11179;52.106;21.024;2023-03-03T04:31:29;100677.09;;;-3.14;70.95
22031;BME280;11179;52.106;21.024;2023-03-03T04:33:54;100682.13;;;-3.11;70.89
22031;BME280;11179;52.106;21.024;2023-03-03T04:36:20;100686.00;;;-3.05;71.09
22031;BME280;11179;52.106;21.024;2023-03-03T04:38:46;100680.63;;;-3.05;71.14
22031;BME280;11179;52.106;21.024;2023-03-03T04:41:11;100672.78;;;-3.07;71.18
22031;BME280;11179;52.106;21.024;2023-03-03T04:43:37;100683.31;;;-3.05;71.07
22031;BME280;11179;52.106;21.024;2023-03-03T04:46:02;100666.19;;;-3.13;71.10
22031;BME280;11179;52.106;21.024;2023-03-03T04:48:28;100660.81;;;-3.13;71.16
22031;BME280;11179;52.106;21.024;2023-03-03T04:50:53;100662.50;;;-3.12;71.23
22031;BME280;11179;52.106;21.024;2023-03-03T04:53:19;100667.41;;;-3.07;71.29
22031;BME280;11179;52.106;21.024;2023-03-03T04:55:44;100669.03;;;-3.06;71.42
22031;BME280;11179;52.106;21.024;2023-03-03T04:58:09;100656.13;;;-3.11;71.23
22031;BME280;11179;52.106;21.024;2023-03-03T05:00:35;100671.56;;;-3.04;71.49
22031;BME280;11179;52.106;21.024;2023-03-03T05:03:00;100666.19;;;-3.04;71.45
22031;BME280;11179;52.106;21.024;2023-03-03T05:05:26;100666.19;;;-3.04;71.52
22031;BME280;11179;52.106;21.024;2023-03-03T05:07:51;100662.50;;;-3.03;71.74
22031;BME280;11179;52.106;21.024;2023-03-03T05:10:16;100657.13;;;-3.03;71.65
22031;BME280;11179;52.106;21.024;2023-03-03T05:12:42;100656.13;;;-3.02;71.75
22031;BME280;11179;52.106;21.024;2023-03-03T05:15:08;100657.81;;;-3.01;71.58
22031;BME280;11179;52.106;21.024;2023-03-03T05:17:34;100655.47;;;-3.04;71.76
22031;BME280;11179;52.106;21.024;2023-03-03T05:19:59;100648.91;;;-3.02;71.78
22031;BME280;11179;52.106;21.024;2023-03-03T05:22:24;100647.41;;;-3.04;71.83
22031;BME280;11179;52.106;21.024;2023-03-03T05:24:50;100649.75;;;-3.01;71.81
22031;BME280;11179;52.106;21.024;2023-03-03T05:27:16;100665.41;;;-2.97;71.88
22031;BME280;11179;52.106;21.024;2023-03-03T05:29:42;100660.72;;;-2.95;71.85
22031;BME280;11179;52.106;21.024;2023-03-03T05:32:07;100658.88;;;-2.94;72.05
22031;BME280;11179;52.106;21.024;2023-03-03T05:34:32;100652.97;;;-2.98;71.99
22031;BME280;11179;52.106;21.024;2023-03-03T05:36:58;100659.19;;;-2.89;71.88
22031;BME280;11179;52.106;21.024;2023-03-03T05:39:23;100654.34;;;-2.86;71.91
22031;BME280;11179;52.106;21.024;2023-03-03T05:41:49;100651.50;;;-2.84;72.12
22031;BME280;11179;52.106;21.024;2023-03-03T05:44:14;100661.94;;;-2.73;72.09
22031;BME280;11179;52.106;21.024;2023-03-03T05:46:39;100643.63;;;-2.69;72.18
22031;BME280;11179;52.106;21.024;2023-03-03T05:49:06;100641.47;;;-2.58;72.15
22031;BME280;11179;52.106;21.024;2023-03-03T05:51:31;100652.56;;;-2.45;72.02
22031;BME280;11179;52.106;21.024;2023-03-03T05:53:57;100660.47;;;-2.27;72.20
22031;BME280;11179;52.106;21.024;2023-03-03T05:56:22;100655.59;;;-2.07;72.11
22031;BME280;11179;52.106;21.024;2023-03-03T05:58:47;100671.03;;;-1.93;72.01
22031;BME280;11179;52.106;21.024;2023-03-03T06:01:13;100652.84;;;-1.83;71.96
22031;BME280;11179;52.106;21.024;2023-03-03T06:03:38;100657.22;;;-1.74;71.79
22031;BME280;11179;52.106;21.024;2023-03-03T06:06:04;100645.41;;;-1.73;71.76
22031;BME280;11179;52.106;21.024;2023-03-03T06:08:29;100656.50;;;-1.59;71.63
22031;BME280;11179;52.106;21.024;2023-03-03T06:10:56;100658.00;;;-1.57;71.71
22031;BME280;11179;52.106;21.024;2023-03-03T06:13:21;100656.66;;;-1.53;71.80
22031;BME280;11179;52.106;21.024;2023-03-03T06:15:47;100644.03;;;-1.52;71.64
22031;BME280;11179;52.106;21.024;2023-03-03T06:18:12;100655.16;;;-1.47;71.57
22031;BME280;11179;52.106;21.024;2023-03-03T06:20:37;100638.31;;;-1.49;71.47
22031;BME280;11179;52.106;21.024;2023-03-03T06:23:03;100632.09;;;-1.50;71.52
22031;BME280;11179;52.106;21.024;2023-03-03T06:25:29;100644.34;;;-1.39;71.58
22031;BME280;11179;52.106;21.024;2023-03-03T06:27:54;100640.63;;;-1.38;71.52
22031;BME280;11179;52.106;21.024;2023-03-03T06:30:20;100646.84;;;-1.38;71.78
22031;BME280;11179;52.106;21.024;2023-03-03T06:32:45;100661.13;;;-1.29;71.53
22031;BME280;11179;52.106;21.024;2023-03-03T06:35:11;100644.78;;;-1.27;71.64
22031;BME280;11179;52.106;21.024;2023-03-03T06:37:36;100669.16;;;-1.13;71.62
22031;BME280;11179;52.106;21.024;2023-03-03T06:40:03;100660.72;;;-1.10;71.38
22031;BME280;11179;52.106;21.024;2023-03-03T06:42:29;100645.72;;;-1.12;71.37
22031;BME280;11179;52.106;21.024;2023-03-03T06:44:54;100650.06;;;-1.03;71.34
22031;BME280;11179;52.106;21.024;2023-03-03T06:47:20;100653.78;;;-1.04;71.41
22031;BME280;11179;52.106;21.024;2023-03-03T06:49:45;100666.72;;;-1.00;71.43
22031;BME280;11179;52.106;21.024;2023-03-03T06:52:13;100665.88;;;-1.00;71.33
22031;BME280;11179;52.106;21.024;2023-03-03T06:54:41;100660.84;;;-1.03;71.31
22031;BME280;11179;52.106;21.024;2023-03-03T06:57:15;100665.72;;;-0.99;71.23
22031;BME280;11179;52.106;21.024;2023-03-03T06:59:41;100655.44;;;-1.03;71.22
22031;BME280;11179;52.106;21.024;2023-03-03T07:02:15;100661.34;;;-1.00;71.51
22031;BME280;11179;52.106;21.024;2023-03-03T07:04:41;100654.66;;;-1.12;71.09
22031;BME280;11179;52.106;21.024;2023-03-03T07:07:17;100670.78;;;-1.04;71.25
22031;BME280;11179;52.106;21.024;2023-03-03T07:09:48;100669.47;;;-1.08;71.32
22031;BME280;11179;52.106;21.024;2023-03-03T07:12:19;100673.81;;;-1.07;71.24
22031;BME280;11179;52.106;21.024;2023-03-03T07:14:49;100667.41;;;-1.06;71.34
22031;BME280;11179;52.106;21.024;2023-03-03T07:17:20;100667.06;;;-1.03;71.35
22031;BME280;11179;52.106;21.024;2023-03-03T07:19:47;100654.41;;;-0.94;71.33
22031;BME280;11179;52.106;21.024;2023-03-03T07:22:14;100642.84;;;-0.80;71.37
22031;BME280;11179;52.106;21.024;2023-03-03T07:24:41;100654.94;;;-0.68;71.17
22031;BME280;11179;52.106;21.024;2023-03-03T07:27:18;100660.94;;;-0.58;71.18
22031;BME280;11179;52.106;21.024;2023-03-03T07:29:47;100643.25;;;-0.60;70.82
22031;BME280;11179;52.106;21.024;2023-03-03T07:32:39;100651.94;;;-0.50;70.86
22031;BME280;11179;52.106;21.024;2023-03-03T07:35:28;100652.25;;;-0.45;70.69
22031;BME280;11179;52.106;21.024;2023-03-03T07:37:58;100649.72;;;-0.46;70.74
22031;BME280;11179;52.106;21.024;2023-03-03T07:42:51;100653.97;;;-0.52;70.56
22031;BME280;11179;52.106;21.024;2023-03-03T07:45:49;100652.94;;;-0.51;70.62
22031;BME280;11179;52.106;21.024;2023-03-03T07:48:24;100649.53;;;-0.45;70.49
22031;BME280;11179;52.106;21.024;2023-03-03T07:50:50;100652.41;;;-0.46;70.79
22031;BME280;11179;52.106;21.024;2023-03-03T07:53:28;100677.59;;;-0.31;70.79
22031;BME280;11179;52.106;21.024;2023-03-03T07:55:53;100666.91;;;-0.25;70.76
22031;BME280;11179;52.106;21.024;2023-03-03T07:58:21;100680.34;;;-0.16;70.58
22031;BME280;11179;52.106;21.024;2023-03-03T08:03:35;100675.53;;;-0.06;70.42
22031;BME280;11179;52.106;21.024;2023-03-03T08:06:22;100666.78;;;-0.08;70.32
22031;BME280;11179;52.106;21.024;2023-03-03T08:08:51;100667.09;;;-0.03;70.12
22031;BME280;11179;52.106;21.024;2023-03-03T08:11:16;100661.97;;;0.02;70.19
22031;BME280;11179;52.106;21.024;2023-03-03T08:13:42;100667.31;;;0.10;70.18
22031;BME280;11179;52.106;21.024;2023-03-03T08:19:00;100673.19;;;0.28;70.05
22031;BME280;11179;52.106;21.024;2023-03-03T08:21:26;100684.38;;;0.40;70.07
22031;BME280;11179;52.106;21.024;2023-03-03T08:23:52;100682.34;;;0.42;70.07
22031;BME280;11179;52.106;21.024;2023-03-03T08:26:21;100682.81;;;0.45;70.09
22031;BME280;11179;52.106;21.024;2023-03-03T08:28:47;100677.41;;;0.45;70.15
22031;BME280;11179;52.106;21.024;2023-03-03T08:31:12;100668.56;;;0.52;69.83
22031;BME280;11179;52.106;21.024;2023-03-03T08:33:38;100682.66;;;0.62;69.76
22031;BME280;11179;52.106;21.024;2023-03-03T08:36:05;100698.94;;;0.68;69.89
22031;BME280;11179;52.106;21.024;2023-03-03T08:38:30;100675.09;;;0.72;70.07
22031;BME280;11179;52.106;21.024;2023-03-03T08:40:55;100688.59;;;0.86;69.82
22031;BME280;11179;52.106;21.024;2023-03-03T08:43:21;100689.81;;;0.84;69.78
22031;BME280;11179;52.106;21.024;2023-03-03T08:45:51;100687.56;;;0.88;69.57
22031;BME280;11179;52.106;21.024;2023-03-03T08:48:18;100692.63;;;0.91;69.76
22031;BME280;11179;52.106;21.024;2023-03-03T08:50:44;100691.38;;;0.93;69.72
22031;BME280;11179;52.106;21.024;2023-03-03T08:53:11;100679.00;;;0.99;69.76
22031;BME280;11179;52.106;21.024;2023-03-03T08:55:36;100673.22;;;1.02;69.52
22031;BME280;11179;52.106;21.024;2023-03-03T08:58:02;100677.22;;;1.06;69.45
22031;BME280;11179;52.106;21.024;2023-03-03T09:00:27;100669.00;;;1.14;69.62
22031;BME280;11179;52.106;21.024;2023-03-03T09:02:53;100679.50;;;1.23;69.40
22031;BME280;11179;52.106;21.024;2023-03-03T09:05:20;100690.00;;;1.33;69.40
22031;BME280;11179;52.106;21.024;2023-03-03T09:07:46;100704.59;;;1.32;69.33
22031;BME280;11179;52.106;21.024;2023-03-03T09:10:15;100697.88;;;1.28;69.18
22031;BME280;11179;52.106;21.024;2023-03-03T09:12:43;100702.91;;;1.31;69.04
22031;BME280;11179;52.106;21.024;2023-03-03T09:17:47;100707.56;;;1.22;68.87
22031;BME280;11179;52.106;21.024;2023-03-03T09:22:57;100705.53;;;1.25;68.97
22031;BME280;11179;52.106;21.024;2023-03-03T09:25:32;100709.34;;;1.30;68.94
22031;BME280;11179;52.106;21.024;2023-03-03T09:28:00;100696.25;;;1.34;68.75
22031;BME280;11179;52.106;21.024;2023-03-03T09:30:36;100679.13;;;1.27;68.54
22031;BME280;11179;52.106;21.024;2023-03-03T09:33:18;100685.28;;;1.20;68.26
22031;BME280;11179;52.106;21.024;2023-03-03T09:35:45;100674.03;;;1.17;68.44
22031;BME280;11179;52.106;21.024;2023-03-03T09:38:30;100669.16;;;1.27;68.70
22031;BME280;11179;52.106;21.024;2023-03-03T09:44:05;100653.53;;;1.44;68.13
22031;BME280;11179;52.106;21.024;2023-03-03T09:46:43;100653.41;;;1.52;68.03
22031;BME280;11179;52.106;21.024;2023-03-03T09:49:31;100654.88;;;1.54;67.50
22031;BME280;11179;52.106;21.024;2023-03-03T09:54:58;100664.53;;;1.64;67.42
22031;BME280;11179;52.106;21.024;2023-03-03T10:00:17;100655.84;;;1.68;66.91
22031;BME280;11179;52.106;21.024;2023-03-03T10:11:00;100640.50;;;1.75;66.90
22031;BME280;11179;52.106;21.024;2023-03-03T10:16:18;100638.44;;;1.77;66.82
22031;BME280;11179;52.106;21.024;2023-03-03T10:19:07;100640.97;;;1.79;66.71
22031;BME280;11179;52.106;21.024;2023-03-03T10:22:32;100641.03;;;1.64;66.54
22031;BME280;11179;52.106;21.024;2023-03-03T10:29:59;100651.34;;;1.54;66.54
22031;BME280;11179;52.106;21.024;2023-03-03T10:32:34;100653.41;;;1.52;66.67
22031;BME280;11179;52.106;21.024;2023-03-03T10:52:11;100663.25;;;1.59;66.25
22031;BME280;11179;52.106;21.024;2023-03-03T10:54:52;100654.94;;;1.61;66.10
22031;BME280;11179;52.106;21.024;2023-03-03T10:57:59;100659.31;;;1.62;65.93
22031;BME280;11179;52.106;21.024;2023-03-03T11:06:10;100659.47;;;1.54;66.12
22031;BME280;11179;52.106;21.024;2023-03-03T11:08:47;100653.00;;;1.55;66.08
22031;BME280;11179;52.106;21.024;2023-03-03T11:14:29;100647.66;;;1.40;65.90
22031;BME280;11179;52.106;21.024;2023-03-03T11:19:45;100656.41;;;1.42;65.77
22031;BME280;11179;52.106;21.024;2023-03-03T11:31:09;100662.91;;;1.48;65.75
22031;BME280;11179;52.106;21.024;2023-03-03T11:36:31;100654.81;;;1.48;65.45
22031;BME280;11179;52.106;21.024;2023-03-03T11:39:01;100645.13;;;1.39;65.66
22031;BME280;11179;52.106;21.024;2023-03-03T11:41:32;100644.09;;;1.40;65.27
22031;BME280;11179;52.106;21.024;2023-03-03T11:44:08;100653.81;;;1.34;65.46
22031;BME280;11179;52.106;21.024;2023-03-03T11:46:41;100647.50;;;1.27;65.52
22031;BME280;11179;52.106;21.024;2023-03-03T11:49:18;100630.28;;;1.13;65.57
22031;BME280;11179;52.106;21.024;2023-03-03T11:51:52;100640.56;;;1.18;65.54
22031;BME280;11179;52.106;21.024;2023-03-03T11:54:26;100627.41;;;1.15;65.75
22031;BME280;11179;52.106;21.024;2023-03-03T11:57:00;100635.56;;;1.21;65.50
22031;BME280;11179;52.106;21.024;2023-03-03T11:59:55;100635.75;;;1.20;65.60
22031;BME280;11179;52.106;21.024;2023-03-03T12:05:20;100627.72;;;1.27;65.57
22031;BME280;11179;52.106;21.024;2023-03-03T12:08:12;100638.38;;;1.28;65.61
22031;BME280;11179;52.106;21.024;2023-03-03T12:13:31;100639.38;;;1.27;65.70
22031;BME280;11179;52.106;21.024;2023-03-03T12:16:16;100630.44;;;1.27;65.54
22031;BME280;11179;52.106;21.024;2023-03-03T12:18:47;100645.09;;;1.32;65.68
22031;BME280;11179;52.106;21.024;2023-03-03T12:29:15;100630.25;;;1.28;65.40
22031;BME280;11179;52.106;21.024;2023-03-03T12:34:43;100636.59;;;1.20;65.46
22031;BME280;11179;52.106;21.024;2023-03-03T12:40:09;100642.47;;;1.24;65.44
22031;BME280;11179;52.106;21.024;2023-03-03T12:51:20;100638.53;;;1.05;65.35
22031;BME280;11179;52.106;21.024;2023-03-03T12:56:33;100646.34;;;1.00;65.51
22031;BME280;11179;52.106;21.024;2023-03-03T13:02:25;100643.00;;;0.83;65.73
22031;BME280;11179;52.106;21.024;2023-03-03T13:05:24;100645.81;;;0.90;65.64
22031;BME280;11179;52.106;21.024;2023-03-03T13:16:22;100623.78;;;0.93;65.55
22031;BME280;11179;52.106;21.024;2023-03-03T13:18:56;100646.72;;;0.97;65.41
22031;BME280;11179;52.106;21.024;2023-03-03T13:21:48;100641.31;;;0.97;65.47
22031;BME280;11179;52.106;21.024;2023-03-03T13:24:17;100639.47;;;0.98;65.57
22031;BME280;11179;52.106;21.024;2023-03-03T13:27:12;100635.06;;;0.97;65.57
22031;BME280;11179;52.106;21.024;2023-03-03T13:30:00;100634.88;;;0.98;65.66
22031;BME280;11179;52.106;21.024;2023-03-03T13:32:34;100633.78;;;0.93;65.62
22031;BME280;11179;52.106;21.024;2023-03-03T13:35:17;100633.31;;;0.89;65.47
22031;BME280;11179;52.106;21.024;2023-03-03T13:37:52;100621.22;;;0.85;65.81
22031;BME280;11179;52.106;21.024;2023-03-03T13:40:23;100624.56;;;0.87;65.82
22031;BME280;11179;52.106;21.024;2023-03-03T13:42:58;100630.88;;;0.94;65.51
22031;BME280;11179;52.106;21.024;2023-03-03T13:45:36;100632.50;;;0.89;65.50
22031;BME280;11179;52.106;21.024;2023-03-03T13:48:22;100632.50;;;0.89;65.66
22031;BME280;11179;52.106;21.024;2023-03-03T13:50:56;100604.91;;;0.78;65.59
22031;BME280;11179;52.106;21.024;2023-03-03T13:54:08;100613.09;;;0.85;65.57
22031;BME280;11179;52.106;21.024;2023-03-03T13:59:14;100609.19;;;0.73;65.68
22031;BME280;11179;52.106;21.024;2023-03-03T14:02:00;100616.78;;;0.63;65.77
22031;BME280;11179;52.106;21.024;2023-03-03T14:07:28;100617.78;;;0.62;65.88
22031;BME280;11179;52.106;21.024;2023-03-03T14:10:02;100611.00;;;0.66;66.06
22031;BME280;11179;52.106;21.024;2023-03-03T14:12:43;100607.34;;;0.59;66.02
22031;BME280;11179;52.106;21.024;2023-03-03T14:15:24;100611.44;;;0.55;66.27
22031;BME280;11179;52.106;21.024;2023-03-03T14:20:29;100605.31;;;0.61;66.34
22031;BME280;11179;52.106;21.024;2023-03-03T14:23:19;100612.47;;;0.68;66.28
22031;BME280;11179;52.106;21.024;2023-03-03T14:28:23;100600.91;;;0.74;66.12
22031;BME280;11179;52.106;21.024;2023-03-03T14:30:52;100610.22;;;0.72;66.05
22031;BME280;11179;52.106;21.024;2023-03-03T14:33:29;100605.66;;;0.72;66.02
22031;BME280;11179;52.106;21.024;2023-03-03T14:41:20;100605.66;;;0.58;66.29
22031;BME280;11179;52.106;21.024;2023-03-03T14:43:57;100587.59;;;0.43;66.04
22031;BME280;11179;52.106;21.024;2023-03-03T14:48:53;100608.00;;;0.61;66.52
22031;BME280;11179;52.106;21.024;2023-03-03T14:51:25;100599.34;;;0.50;66.32
22031;BME280;11179;52.106;21.024;2023-03-03T14:53:52;100614.25;;;0.61;66.30
22031;BME280;11179;52.106;21.024;2023-03-03T14:58:43;100609.13;;;0.52;66.11
22031;BME280;11179;52.106;21.024;2023-03-03T15:01:13;100603.53;;;0.53;66.33
22031;BME280;11179;52.106;21.024;2023-03-03T15:03:58;100603.75;;;0.52;66.18
22031;BME280;11179;52.106;21.024;2023-03-03T15:06:43;100609.97;;;0.52;66.35
22031;BME280;11179;52.106;21.024;2023-03-03T15:09:37;100609.03;;;0.45;66.15
22031;BME280;11179;52.106;21.024;2023-03-03T15:14:51;100613.97;;;0.41;66.36
22031;BME280;11179;52.106;21.024;2023-03-03T15:18:08;100608.97;;;0.38;66.47
22031;BME280;11179;52.106;21.024;2023-03-03T15:20:43;100604.75;;;0.36;66.08
22031;BME280;11179;52.106;21.024;2023-03-03T15:28:42;100613.88;;;0.35;66.53
22031;BME280;11179;52.106;21.024;2023-03-03T15:31:20;100606.81;;;0.34;66.46
22031;BME280;11179;52.106;21.024;2023-03-03T15:42:11;100611.06;;;0.28;66.63
22031;BME280;11179;52.106;21.024;2023-03-03T15:44:50;100602.78;;;0.30;66.61
22031;BME280;11179;52.106;21.024;2023-03-03T15:47:46;100602.78;;;0.30;66.49
22031;BME280;11179;52.106;21.024;2023-03-03T15:55:46;100602.97;;;0.28;66.57
22031;BME280;11179;52.106;21.024;2023-03-03T16:30:26;100599.44;;;0.13;66.58
22031;BME280;11179;52.106;21.024;2023-03-03T16:33:02;100593.38;;;0.11;66.59
22031;BME280;11179;52.106;21.024;2023-03-03T16:36:26;100591.72;;;0.10;66.87